Accueil
METAR-TAF:

METAR-TAF

Aéroports :

Guaymas, Mexique

latitude: 27-58N, longitude: 110-56W, altitude: 27 m

Observation

Le bulletin a été fait il y a 9 heures et 10 minutes, à 01:47 UTC
Vent 6 kt de sud/sud-ouest
Température 35°C
Humidité 53%
Pression 1009 hPa
Visibilité: 16.1 km
Ciel clair

METAR: MMGM 220147Z 20006KT 10SM SKC 35/24 A2979

Heure: 03:57 (10:57 UTC)

Prévision

Le bulletin a été fait il y a 6 heures et 24 minutes, à 04:33 UTC
Prévision valable du 22 à 06 UTC au 23 à 06 UTC
Vent 6 kt de sud/sud-ouest
Visibilité: 10 km
Ciel clair
A partir de 22 à 1800 UTC
Vent 10 kt de ouest
Visibilité: 10 km
Ciel clair
Evoluant progressivement
du 23 à 03 UTC au 23 à 05 UTC
Vent 4 kt de nord/nord-ouest

TAF: MMGM 220433Z 2206/2306 20006KT P6SM SKC FM221800 26010KT P6SM SKC BECMG 2303/2305 33004KT

Observations et prévisions météorologiques de plus de 4000 aéroports (messages METAR et TAF).

Les stations disponibles sont représentées par des disques jaunes et rouges sur la carte.

Passer la souris dessus pour voir le nom de la station.

Cliquer dessus pour voir les observations et prévisions météorologiques.

Pour changer de carte: cliquez sur les boutons verts avec une croix noire pour zoomer, sur le bouton vert avec un tiret pour effectuer un zoom arrière, ou sur les flèches vertes pour les cartes adjacentes.


METAR-TAF: